createdAt,value
2022-10-11T00:00:57.491Z,12.43
2022-10-11T00:03:25.317Z,12.36
2022-10-11T00:05:53.774Z,12.38
2022-10-11T00:08:21.470Z,12.38
2022-10-11T00:10:57.391Z,12.24
2022-10-11T00:13:26.397Z,12.19
2022-10-11T00:15:55.741Z,12.39
2022-10-11T00:18:23.577Z,12.38
2022-10-11T00:20:51.076Z,12.37
2022-10-11T00:23:18.561Z,12.33
2022-10-11T00:25:46.028Z,12.38
2022-10-11T00:28:13.528Z,12.30
2022-10-11T00:30:44.602Z,12.34
2022-10-11T00:33:12.071Z,12.36
2022-10-11T00:35:41.274Z,12.33
2022-10-11T00:38:08.756Z,12.39
2022-10-11T00:40:36.326Z,12.35
2022-10-11T00:43:03.845Z,12.29
2022-10-11T00:46:03.331Z,12.16
2022-10-11T00:48:39.087Z,12.11
2022-10-11T00:51:13.382Z,12.06
2022-10-11T00:53:41.557Z,12.14
2022-10-11T00:56:13.965Z,12.04
2022-10-11T00:58:42.648Z,12.10
2022-10-11T01:01:12.073Z,12.07
2022-10-11T01:03:41.678Z,11.84
2022-10-11T01:06:10.082Z,11.80
2022-10-11T01:08:38.832Z,11.88
2022-10-11T01:11:07.256Z,11.90
2022-10-11T01:13:47.056Z,11.89
2022-10-11T01:16:24.479Z,11.88
2022-10-11T01:19:03.974Z,11.91
2022-10-11T01:21:39.384Z,11.96
2022-10-11T01:24:24.633Z,11.91
2022-10-11T01:27:33.489Z,11.98
2022-10-11T01:30:14.649Z,12.00
2022-10-11T01:32:50.990Z,11.92
2022-10-11T01:35:25.751Z,11.99
2022-10-11T01:38:00.667Z,11.91
2022-10-11T01:40:32.733Z,11.97
2022-10-11T01:43:01.186Z,11.88
2022-10-11T01:45:31.427Z,11.81
2022-10-11T01:48:04.325Z,11.91
2022-10-11T01:50:37.879Z,11.98
2022-10-11T01:53:16.591Z,11.97
2022-10-11T01:55:51.586Z,11.84
2022-10-11T01:58:34.646Z,11.89
2022-10-11T02:01:16.051Z,11.93
2022-10-11T02:03:50.074Z,11.86
2022-10-11T02:06:24.161Z,11.84
2022-10-11T02:09:07.778Z,11.74
2022-10-11T02:11:37.269Z,11.71
2022-10-11T02:14:10.354Z,11.78
2022-10-11T02:16:46.241Z,11.89
2022-10-11T02:19:19.566Z,11.77
2022-10-11T02:21:52.331Z,11.66
2022-10-11T02:24:24.134Z,11.48
2022-10-11T02:26:55.012Z,11.55
2022-10-11T02:29:25.907Z,11.20
2022-10-11T02:31:57.722Z,11.39
2022-10-11T02:34:28.714Z,11.24
2022-10-11T02:37:03.379Z,11.16
2022-10-11T02:39:35.648Z,11.09
2022-10-11T02:42:07.629Z,11.20
2022-10-11T02:44:39.794Z,11.27
2022-10-11T02:47:09.404Z,11.21
2022-10-11T02:49:37.103Z,11.23
2022-10-11T02:52:07.185Z,11.10
2022-10-11T02:54:35.028Z,11.16
2022-10-11T02:57:02.713Z,11.14
2022-10-11T02:59:30.212Z,11.20
2022-10-11T03:01:57.820Z,11.05
2022-10-11T03:04:26.678Z,11.26
2022-10-11T03:06:54.155Z,11.21
2022-10-11T03:09:21.658Z,11.29
2022-10-11T03:11:49.330Z,11.27
2022-10-11T03:14:16.805Z,11.29
2022-10-11T03:16:44.298Z,11.26
2022-10-11T03:19:14.642Z,11.18
2022-10-11T03:21:47.210Z,11.12
2022-10-11T03:24:14.735Z,11.21
2022-10-11T03:26:42.252Z,11.47
2022-10-11T03:29:09.884Z,11.58
2022-10-11T03:31:37.426Z,11.63
2022-10-11T03:34:04.938Z,11.48
2022-10-11T03:36:32.411Z,11.45
2022-10-11T03:39:03.053Z,11.39
2022-10-11T03:41:30.696Z,11.44
2022-10-11T03:43:58.365Z,11.51
2022-10-11T03:46:25.993Z,11.38
2022-10-11T03:48:53.479Z,11.43
2022-10-11T03:51:21.017Z,11.45
2022-10-11T03:53:48.498Z,11.50
2022-10-11T03:56:17.340Z,11.34
2022-10-11T03:58:44.807Z,11.25
2022-10-11T04:01:12.456Z,11.25
2022-10-11T04:03:39.988Z,11.29
2022-10-11T04:06:08.496Z,11.21
2022-10-11T04:08:36.253Z,11.17
2022-10-11T04:11:04.029Z,11.19
2022-10-11T04:13:32.879Z,11.17
2022-10-11T04:16:00.518Z,11.18
2022-10-11T04:18:27.976Z,11.16
2022-10-11T04:20:55.461Z,11.07
2022-10-11T04:23:23.153Z,10.98
2022-10-11T04:25:50.650Z,11.04
2022-10-11T04:28:18.213Z,11.09
2022-10-11T04:30:47.144Z,11.04
2022-10-11T04:33:15.338Z,11.07
2022-10-11T04:35:42.835Z,11.00
2022-10-11T04:38:10.339Z,10.90
2022-10-11T04:40:37.911Z,10.89
2022-10-11T04:43:05.363Z,10.93
2022-10-11T04:45:33.067Z,10.84
2022-10-11T04:48:02.022Z,10.82
2022-10-11T04:50:29.515Z,10.63
2022-10-11T04:52:56.984Z,10.78
2022-10-11T04:55:24.440Z,10.64
2022-10-11T04:57:51.969Z,10.56
2022-10-11T05:00:19.662Z,10.52
2022-10-11T05:02:47.213Z,10.48
2022-10-11T05:05:17.501Z,10.40
2022-10-11T05:07:45.118Z,10.32
2022-10-11T05:10:12.661Z,10.28
2022-10-11T05:12:40.185Z,10.33
2022-10-11T05:15:09.177Z,10.20
2022-10-11T05:17:36.613Z,10.16
2022-10-11T05:20:04.274Z,10.24
2022-10-11T05:22:33.067Z,10.22
2022-10-11T05:25:00.514Z,10.24
2022-10-11T05:27:28.209Z,10.42
2022-10-11T05:29:55.745Z,10.32
2022-10-11T05:32:26.716Z,10.21
2022-10-11T05:34:55.502Z,10.23
2022-10-11T05:37:23.057Z,10.29
2022-10-11T05:39:52.093Z,10.26
2022-10-11T05:42:19.537Z,10.37
2022-10-11T05:44:47.617Z,10.38
2022-10-11T05:47:15.315Z,10.46
2022-10-11T05:49:42.865Z,10.38
2022-10-11T05:52:10.844Z,10.25
2022-10-11T05:54:38.387Z,10.36
2022-10-11T05:57:07.216Z,10.39
2022-10-11T05:59:36.259Z,10.47
2022-10-11T06:02:03.955Z,10.34
2022-10-11T06:04:31.706Z,10.52
2022-10-11T06:06:59.250Z,10.51
2022-10-11T06:09:26.868Z,10.33
2022-10-11T06:11:54.354Z,10.36
2022-10-11T06:14:23.333Z,10.15
2022-10-11T06:16:50.774Z,10.19
2022-10-11T06:19:18.253Z,10.19
2022-10-11T06:21:46.627Z,10.45
2022-10-11T06:24:14.185Z,10.46
2022-10-11T06:26:41.733Z,10.57
2022-10-11T06:29:09.794Z,10.60
2022-10-11T06:31:38.598Z,10.63
2022-10-11T06:34:06.096Z,10.65
2022-10-11T06:36:33.626Z,10.75
2022-10-11T06:39:01.661Z,10.82
2022-10-11T06:41:31.197Z,10.86
2022-10-11T06:43:58.970Z,11.02
2022-10-11T06:46:28.372Z,11.21
2022-10-11T06:48:57.280Z,11.25
2022-10-11T06:51:25.527Z,11.35
2022-10-11T06:53:56.612Z,11.25
2022-10-11T06:56:24.973Z,11.24
2022-10-11T06:58:54.170Z,11.39
2022-10-11T07:01:23.542Z,11.39
2022-10-11T07:03:52.594Z,11.63
2022-10-11T07:06:23.153Z,11.76
2022-10-11T07:08:50.880Z,11.84
2022-10-11T07:11:20.584Z,11.91
2022-10-11T07:13:51.822Z,11.91
2022-10-11T07:16:20.739Z,12.05
2022-10-11T07:18:49.006Z,12.02
2022-10-11T07:21:17.098Z,12.07
2022-10-11T07:23:45.942Z,12.16
2022-10-11T07:26:13.771Z,12.19
2022-10-11T07:28:41.834Z,12.02
2022-10-11T07:31:11.518Z,11.90
2022-10-11T07:33:39.002Z,11.90
2022-10-11T07:36:08.468Z,11.80
2022-10-11T07:38:36.768Z,11.71
2022-10-11T07:41:07.723Z,11.81
2022-10-11T07:43:35.235Z,11.87
2022-10-11T07:46:04.732Z,11.76
2022-10-11T07:48:33.473Z,11.90
2022-10-11T07:51:06.879Z,12.03
2022-10-11T07:53:39.200Z,12.15
2022-10-11T07:56:09.173Z,12.22
2022-10-11T07:58:36.857Z,12.19
2022-10-11T08:01:04.656Z,12.17
2022-10-11T08:03:32.243Z,12.23
2022-10-11T08:06:03.882Z,12.42
2022-10-11T08:08:32.028Z,12.46
2022-10-11T08:11:00.494Z,12.65
2022-10-11T08:13:29.366Z,12.80
2022-10-11T08:15:57.629Z,12.89
2022-10-11T08:18:25.629Z,12.93
2022-10-11T08:20:53.451Z,13.04
2022-10-11T08:23:21.224Z,13.07
2022-10-11T08:25:49.163Z,13.07
2022-10-11T08:28:17.818Z,12.99
2022-10-11T08:30:50.909Z,12.99
2022-10-11T08:33:18.926Z,13.00
2022-10-11T08:35:46.418Z,12.83
2022-10-11T08:38:14.088Z,12.79
2022-10-11T08:40:47.032Z,12.85
2022-10-11T08:43:23.279Z,13.05
2022-10-11T08:45:56.934Z,13.23
2022-10-11T08:48:33.477Z,13.22
2022-10-11T08:51:01.835Z,13.38
2022-10-11T08:53:41.960Z,13.40
2022-10-11T08:56:13.172Z,13.31
2022-10-11T08:58:46.557Z,13.45
2022-10-11T09:01:19.585Z,13.67
2022-10-11T09:03:48.989Z,13.72
2022-10-11T09:06:25.036Z,13.70
2022-10-11T09:09:08.499Z,13.68
2022-10-11T09:11:47.856Z,13.65
2022-10-11T09:14:36.500Z,13.76
2022-10-11T09:17:11.985Z,13.83
2022-10-11T09:19:59.383Z,14.03
2022-10-11T09:22:39.260Z,14.14
2022-10-11T09:25:19.607Z,14.28
2022-10-11T09:28:02.923Z,14.38
2022-10-11T09:30:33.009Z,14.25
2022-10-11T09:33:11.765Z,14.44
2022-10-11T09:35:43.540Z,14.42
2022-10-11T09:38:19.405Z,14.43
2022-10-11T09:40:59.816Z,14.56
2022-10-11T09:43:27.704Z,14.37
2022-10-11T09:45:55.216Z,14.41
2022-10-11T09:48:28.311Z,14.62
2022-10-11T09:51:03.546Z,14.64
2022-10-11T09:53:56.533Z,14.72
2022-10-11T09:56:25.820Z,14.80
2022-10-11T09:59:08.978Z,14.87
2022-10-11T10:01:36.751Z,14.95
2022-10-11T10:04:09.777Z,14.97
2022-10-11T10:06:38.447Z,15.06
2022-10-11T10:09:27.072Z,15.04
2022-10-11T10:11:55.662Z,15.14
2022-10-11T10:14:26.434Z,15.27
2022-10-11T10:17:03.723Z,15.46
2022-10-11T10:19:44.702Z,15.43
2022-10-11T10:22:19.855Z,15.36
2022-10-11T10:24:48.911Z,15.52
2022-10-11T10:27:20.900Z,15.62
2022-10-11T10:30:13.150Z,15.76
2022-10-11T10:32:49.750Z,15.98
2022-10-11T10:35:28.247Z,15.97
2022-10-11T10:38:06.258Z,16.17
2022-10-11T10:40:40.265Z,16.28
2022-10-11T10:43:15.511Z,16.29
2022-10-11T10:46:04.874Z,16.42
2022-10-11T10:49:12.030Z,16.48
2022-10-11T10:51:39.713Z,16.54
2022-10-11T10:54:18.585Z,16.56
2022-10-11T10:56:53.020Z,16.49
2022-10-11T10:59:36.712Z,16.58
2022-10-11T11:02:38.932Z,16.72
2022-10-11T11:05:13.728Z,16.73
2022-10-11T11:07:46.970Z,16.76
2022-10-11T11:10:20.171Z,16.92
2022-10-11T11:12:55.128Z,16.96
2022-10-11T11:15:32.584Z,17.16
2022-10-11T11:18:17.153Z,17.19
2022-10-11T11:20:56.001Z,16.86
2022-10-11T11:23:33.774Z,16.63
2022-10-11T11:26:11.461Z,16.71
2022-10-11T11:28:50.542Z,16.75
2022-10-11T11:31:32.692Z,16.74
2022-10-11T11:34:06.109Z,16.68
2022-10-11T11:36:40.367Z,16.65
2022-10-11T11:39:17.791Z,16.85
2022-10-11T11:41:51.508Z,16.94
2022-10-11T11:44:27.256Z,16.91
2022-10-11T11:47:00.218Z,16.82
2022-10-11T11:49:32.831Z,17.01
2022-10-11T11:52:01.418Z,16.83
2022-10-11T11:54:43.349Z,16.79
2022-10-11T11:57:24.325Z,16.84
2022-10-11T11:59:57.875Z,16.98
2022-10-11T12:02:38.786Z,17.05
2022-10-11T12:05:07.783Z,17.18
2022-10-11T12:07:49.954Z,17.38
2022-10-11T12:10:27.140Z,17.61
2022-10-11T12:13:07.731Z,17.48
2022-10-11T12:15:35.588Z,17.44
2022-10-11T12:18:21.681Z,17.73
2022-10-11T12:21:03.443Z,17.97
2022-10-11T12:23:46.532Z,18.03
2022-10-11T12:26:37.969Z,18.01
2022-10-11T12:29:28.697Z,18.11
2022-10-11T12:32:30.760Z,18.25
2022-10-11T12:35:31.938Z,18.26
2022-10-11T12:38:07.145Z,18.36
2022-10-11T12:40:41.761Z,18.35
2022-10-11T12:43:27.306Z,18.29
2022-10-11T12:45:54.938Z,18.33
2022-10-11T12:48:40.641Z,17.93
2022-10-11T12:51:26.589Z,17.65
2022-10-11T12:54:31.009Z,17.60
2022-10-11T12:57:23.978Z,17.47
2022-10-11T12:59:52.974Z,17.32
2022-10-11T13:02:28.896Z,17.24
2022-10-11T13:05:07.697Z,17.11
2022-10-11T13:07:36.591Z,17.16
2022-10-11T13:10:06.593Z,17.19
2022-10-11T13:12:41.232Z,17.33
2022-10-11T13:15:15.762Z,17.56
2022-10-11T13:17:44.070Z,17.78
2022-10-11T13:20:19.162Z,17.79
2022-10-11T13:22:48.174Z,17.92
2022-10-11T13:25:18.568Z,17.63
2022-10-11T13:27:46.584Z,17.63
2022-10-11T13:30:19.538Z,17.91
2022-10-11T13:32:47.598Z,17.99
2022-10-11T13:35:22.336Z,18.04
2022-10-11T13:37:52.377Z,18.24
2022-10-11T13:40:22.064Z,18.29
2022-10-11T13:42:50.971Z,18.35
2022-10-11T13:45:21.964Z,18.36
2022-10-11T13:47:50.960Z,18.33
2022-10-11T13:50:30.258Z,18.36
2022-10-11T13:53:00.542Z,18.30
2022-10-11T13:55:34.669Z,18.22
2022-10-11T13:58:04.325Z,18.12
2022-10-11T14:00:38.961Z,18.19
2022-10-11T14:03:18.593Z,18.32
2022-10-11T14:05:54.814Z,18.19
2022-10-11T14:08:26.037Z,18.16
2022-10-11T14:10:57.868Z,18.08
2022-10-11T14:13:31.230Z,18.14
2022-10-11T14:16:06.554Z,18.24
2022-10-11T14:18:41.182Z,18.17
2022-10-11T14:21:31.292Z,17.99
2022-10-11T14:24:00.559Z,18.02
2022-10-11T14:26:33.917Z,18.03
2022-10-11T14:29:03.161Z,18.06
2022-10-11T14:31:32.289Z,18.11
2022-10-11T14:33:59.969Z,18.00
2022-10-11T14:36:28.048Z,18.07
2022-10-11T14:38:55.683Z,18.10
2022-10-11T14:41:23.170Z,18.06
2022-10-11T14:43:50.697Z,18.12
2022-10-11T14:46:23.947Z,18.18
2022-10-11T14:48:56.330Z,18.11
2022-10-11T14:51:28.468Z,18.11
2022-10-11T14:53:55.930Z,18.09
2022-10-11T14:56:23.417Z,18.08
2022-10-11T14:58:51.331Z,18.06
2022-10-11T15:01:18.914Z,17.91
2022-10-11T15:03:46.488Z,17.94
2022-10-11T15:06:19.154Z,17.94
2022-10-11T15:08:47.117Z,17.91
2022-10-11T15:11:17.040Z,17.86
2022-10-11T15:13:44.708Z,17.88
2022-10-11T15:16:14.825Z,17.83
2022-10-11T15:18:42.625Z,17.79
2022-10-11T15:21:14.010Z,17.71
2022-10-11T15:23:42.853Z,17.69
2022-10-11T15:26:14.154Z,17.58
2022-10-11T15:28:42.126Z,17.54
2022-10-11T15:31:09.839Z,17.33
2022-10-11T15:33:37.547Z,17.32
2022-10-11T15:36:06.515Z,17.32
2022-10-11T15:38:34.485Z,17.21
2022-10-11T15:41:03.488Z,17.17
2022-10-11T15:43:31.157Z,17.12
2022-10-11T15:45:59.256Z,17.07
2022-10-11T15:48:27.737Z,16.91
2022-10-11T15:50:55.535Z,16.85
2022-10-11T15:53:25.696Z,16.86
2022-10-11T15:55:54.657Z,16.72
2022-10-11T15:58:25.791Z,16.67
2022-10-11T16:00:55.177Z,16.46
2022-10-11T16:03:24.933Z,16.33
2022-10-11T16:05:53.421Z,16.17
2022-10-11T16:08:21.292Z,16.11
2022-10-11T16:10:48.745Z,16.02
2022-10-11T16:13:16.877Z,15.83
2022-10-11T16:15:46.717Z,15.72
2022-10-11T16:18:16.129Z,15.72
2022-10-11T16:20:47.243Z,15.56
2022-10-11T16:23:15.733Z,15.30
2022-10-11T16:25:43.243Z,15.23
2022-10-11T16:28:11.573Z,15.06
2022-10-11T16:30:40.677Z,14.93
2022-10-11T16:33:09.538Z,14.85
2022-10-11T16:35:37.038Z,14.76
2022-10-11T16:38:04.703Z,14.69
2022-10-11T16:40:32.202Z,14.63
2022-10-11T16:43:07.420Z,14.52
2022-10-11T16:45:36.185Z,14.35
2022-10-11T16:48:04.091Z,14.36
2022-10-11T16:50:38.394Z,14.19
2022-10-11T16:53:07.234Z,14.16
2022-10-11T16:55:34.728Z,14.22
2022-10-11T16:58:02.233Z,14.14
2022-10-11T17:00:29.743Z,14.15
2022-10-11T17:02:57.257Z,14.18
2022-10-11T17:05:24.954Z,13.98
2022-10-11T17:07:53.769Z,13.97
2022-10-11T17:10:39.018Z,14.00
2022-10-11T17:13:06.682Z,13.88
2022-10-11T17:15:35.894Z,13.82
2022-10-11T17:18:03.385Z,13.86
2022-10-11T17:20:30.874Z,13.85
2022-10-11T17:23:00.063Z,13.83
2022-10-11T17:25:28.135Z,13.74
2022-10-11T17:27:56.279Z,13.85
2022-10-11T17:30:23.907Z,13.79
2022-10-11T17:32:51.905Z,13.66
2022-10-11T17:35:19.499Z,13.59
2022-10-11T17:37:46.975Z,13.68
2022-10-11T17:40:15.855Z,13.52
2022-10-11T17:42:43.346Z,13.38
2022-10-11T17:45:11.243Z,13.53
2022-10-11T17:47:39.807Z,13.47
2022-10-11T17:50:08.148Z,13.49
2022-10-11T17:52:35.652Z,13.38
2022-10-11T17:55:03.736Z,13.44
2022-10-11T17:57:32.560Z,13.45
2022-10-11T18:00:01.869Z,13.20
2022-10-11T18:02:29.388Z,13.18
2022-10-11T18:04:57.062Z,13.26
2022-10-11T18:07:24.582Z,12.88
2022-10-11T18:09:52.202Z,12.99
2022-10-11T18:12:19.684Z,12.71
2022-10-11T18:14:48.571Z,12.76
2022-10-11T18:17:16.050Z,12.74
2022-10-11T18:19:43.503Z,12.57
2022-10-11T18:22:11.017Z,12.64
2022-10-11T18:24:39.258Z,12.64
2022-10-11T18:27:06.713Z,12.87
2022-10-11T18:29:34.226Z,12.64
2022-10-11T18:32:03.045Z,12.34
2022-10-11T18:34:30.511Z,11.99
2022-10-11T18:36:58.003Z,12.10
2022-10-11T18:39:25.621Z,12.14
2022-10-11T18:41:53.497Z,12.10
2022-10-11T18:44:21.033Z,11.97
2022-10-11T18:46:50.160Z,11.98
2022-10-11T18:49:19.035Z,11.82
2022-10-11T18:51:47.824Z,12.03
2022-10-11T18:54:20.036Z,12.18
2022-10-11T18:56:48.739Z,12.18
2022-10-11T18:59:16.263Z,12.42
2022-10-11T19:01:45.472Z,12.39
2022-10-11T19:04:16.635Z,12.27
2022-10-11T19:06:48.296Z,12.32
2022-10-11T19:09:21.267Z,12.36
2022-10-11T19:11:49.593Z,12.39
2022-10-11T19:14:20.988Z,12.52
2022-10-11T19:16:51.271Z,12.48
2022-10-11T19:19:20.720Z,12.40
2022-10-11T19:21:49.615Z,12.37
2022-10-11T19:24:17.825Z,12.46
2022-10-11T19:26:45.479Z,12.48
2022-10-11T19:29:15.258Z,12.43
2022-10-11T19:31:44.464Z,12.40
2022-10-11T19:34:12.833Z,12.08
2022-10-11T19:36:42.528Z,12.37
2022-10-11T19:39:12.758Z,12.42
2022-10-11T19:41:40.316Z,12.62
2022-10-11T19:44:08.057Z,12.67
2022-10-11T19:46:50.903Z,12.69
2022-10-11T19:49:21.427Z,12.53
2022-10-11T19:51:48.904Z,12.64
2022-10-11T19:54:18.081Z,12.47
2022-10-11T19:56:45.705Z,12.42
2022-10-11T19:59:14.386Z,12.40
2022-10-11T20:01:45.510Z,12.67
2022-10-11T20:04:33.558Z,12.68
2022-10-11T20:07:03.155Z,12.69
2022-10-11T20:09:31.998Z,12.69
2022-10-11T20:11:59.880Z,12.51
2022-10-11T20:14:27.650Z,12.63
2022-10-11T20:16:55.136Z,12.63
2022-10-11T20:19:27.767Z,12.32
2022-10-11T20:21:57.672Z,12.39
2022-10-11T20:24:27.319Z,12.24
2022-10-11T20:26:56.435Z,12.38
2022-10-11T20:29:25.238Z,12.69
2022-10-11T20:31:52.787Z,12.57
2022-10-11T20:34:20.282Z,12.64
2022-10-11T20:36:49.232Z,12.71
2022-10-11T20:39:17.717Z,12.31
2022-10-11T20:41:45.224Z,12.20
2022-10-11T20:44:15.967Z,12.60
2022-10-11T20:46:43.434Z,12.68
2022-10-11T20:49:12.223Z,12.40
2022-10-11T20:51:41.410Z,12.36
2022-10-11T20:54:09.317Z,12.29
2022-10-11T20:56:38.192Z,12.46
2022-10-11T20:59:06.124Z,12.14
2022-10-11T21:01:37.580Z,12.14
2022-10-11T21:04:06.145Z,12.19
2022-10-11T21:06:35.138Z,12.18
2022-10-11T21:09:02.663Z,12.14
2022-10-11T21:11:32.177Z,12.15
2022-10-11T21:14:01.650Z,11.91
2022-10-11T21:16:29.783Z,11.77
2022-10-11T21:19:00.038Z,11.59
2022-10-11T21:21:29.511Z,11.51
2022-10-11T21:23:58.954Z,11.31
2022-10-11T21:26:27.262Z,11.19
2022-10-11T21:28:54.821Z,11.15
2022-10-11T21:31:23.432Z,10.96
2022-10-11T21:33:51.340Z,10.92
2022-10-11T21:36:21.697Z,10.85
2022-10-11T21:38:49.996Z,10.83
2022-10-11T21:41:19.443Z,10.73
2022-10-11T21:43:47.785Z,10.77
2022-10-11T21:46:17.963Z,10.79
2022-10-11T21:48:46.557Z,10.68
2022-10-11T21:51:15.841Z,10.63
2022-10-11T21:53:45.713Z,10.70
2022-10-11T21:56:13.216Z,10.80
2022-10-11T21:58:40.803Z,10.78
2022-10-11T22:01:08.428Z,10.86
2022-10-11T22:03:35.954Z,10.67
2022-10-11T22:06:04.949Z,10.55
2022-10-11T22:08:33.071Z,10.41
2022-10-11T22:11:02.741Z,10.42
2022-10-11T22:13:32.509Z,10.45
2022-10-11T22:16:03.452Z,10.37
2022-10-11T22:18:33.633Z,10.42
2022-10-11T22:21:05.507Z,10.31
2022-10-11T22:23:33.002Z,10.26
2022-10-11T22:26:05.916Z,10.48
2022-10-11T22:28:33.644Z,10.50
2022-10-11T22:31:01.394Z,10.55
2022-10-11T22:33:28.875Z,10.55
2022-10-11T22:35:56.875Z,10.44
2022-10-11T22:38:24.415Z,10.20
2022-10-11T22:40:52.144Z,10.45
2022-10-11T22:43:21.468Z,10.46
2022-10-11T22:45:48.926Z,10.45
2022-10-11T22:48:16.615Z,10.52
2022-10-11T22:50:44.283Z,10.30
2022-10-11T22:53:13.521Z,10.39
2022-10-11T22:55:41.367Z,10.39
2022-10-11T22:58:08.967Z,10.18
2022-10-11T23:00:37.864Z,10.12
2022-10-11T23:03:06.989Z,10.13
2022-10-11T23:05:34.525Z,10.25
2022-10-11T23:08:02.049Z,10.31
2022-10-11T23:10:29.511Z,10.33
2022-10-11T23:12:56.952Z,10.28
2022-10-11T23:15:24.540Z,10.21
2022-10-11T23:17:53.347Z,10.18
2022-10-11T23:20:20.804Z,10.13
2022-10-11T23:22:48.248Z,10.13
2022-10-11T23:25:15.757Z,10.13
2022-10-11T23:27:43.222Z,10.16
2022-10-11T23:30:12.514Z,10.35
2022-10-11T23:32:39.984Z,10.37
2022-10-11T23:35:09.530Z,10.29
2022-10-11T23:37:37.310Z,9.93
2022-10-11T23:40:05.954Z,10.15
2022-10-11T23:42:33.404Z,10.10
2022-10-11T23:45:00.842Z,9.92
2022-10-11T23:47:28.313Z,10.15
2022-10-11T23:49:55.768Z,10.04
2022-10-11T23:52:24.608Z,10.06
2022-10-11T23:54:52.078Z,9.92
2022-10-11T23:57:19.569Z,9.84
2022-10-11T23:59:47.011Z,9.87
